Tokuyoshi Maru — JI3537 — position and weather

sailwx.info

Track history (hours):
 
Tides and Currents Weather Stations Pressure Air Temp Water Temp Dewpoint Dewpoint Depression Visibility Wind Speed Wind Dir Waves Ship Positions

Tokuyoshi Maru

Last reported at 2017-Oct-17 13:15 UTC. Time now 2017-Oct-19 05:35 UTC.
Position N 34°39' E 135°26'.

Length 48 m.

Type: Tanker. MMSI: 431300099.

Date/timePositionNaut miles runAvg speedWind from/ knotsBaromVisibWave heightAir tempDewpointWater temp
2017-Oct-17 13:15N 34°39' E 135°26'2 4.4
2017-Oct-17 12:47N 34°39' E 135°24'0 0.0
2017-Oct-17 12:29N 34°39' E 135°24'0 0.0
2017-Oct-17 11:41N 34°39' E 135°24'0 0.0
2017-Oct-17 11:29N 34°39' E 135°24'  
2017-Oct-15 04:43N 34°39' E 135°20'410.1
2017-Oct-15 04:22N 34°38' E 135°16'410.1
2017-Oct-15 04:00N 34°37' E 135°11'510.8
2017-Oct-15 03:30N 34°36' E 135°05'1 0.1
2017-Oct-14 11:25N 34°37' E 135°06'4 9.8
2017-Oct-14 10:59N 34°36' E 135°11'10 2.6
2017-Oct-14 07:10N 34°37' E 135°23'210.4
2017-Oct-14 06:58N 34°38' E 135°24'2 3.7
2017-Oct-14 06:30N 34°39' E 135°26'2 0.1
2017-Oct-13 14:45N 34°39' E 135°27'7 0.4
2017-Oct-12 22:50N 34°36' E 135°20'3 8.9
2017-Oct-12 22:30N 34°37' E 135°17'2 3.3
2017-Oct-12 21:48N 34°39' E 135°15'0 0.0
2017-Oct-12 21:24N 34°39' E 135°15'0 0.0
2017-Oct-12 20:07N 34°39' E 135°15'0 0.1
2017-Oct-12 20:00N 34°39' E 135°15'0 0.0
2017-Oct-12 19:30N 34°39' E 135°15'0 0.1
2017-Oct-12 19:00N 34°39' E 135°15'0 0.0
2017-Oct-12 18:30N 34°39' E 135°15'0 0.0
2017-Oct-12 18:00N 34°39' E 135°15'0 0.1
2017-Oct-12 17:30N 34°39' E 135°15'0 0.0
2017-Oct-12 17:00N 34°39' E 135°15'0 0.0
2017-Oct-12 16:13N 34°39' E 135°15'0 0.1
2017-Oct-12 15:43N 34°39' E 135°15'0 0.0
2017-Oct-12 15:25N 34°39' E 135°15'0 0.1
2017-Oct-12 14:43N 34°39' E 135°15'0 0.1
2017-Oct-12 14:13N 34°39' E 135°15'0 0.2
2017-Oct-12 13:55N 34°39' E 135°15'0 0.1
2017-Oct-12 13:31N 34°39' E 135°15'0 0.1
2017-Oct-12 12:49N 34°39' E 135°15'0 0.0
2017-Oct-12 11:55N 34°39' E 135°15'0 0.0
2017-Oct-12 11:31N 34°39' E 135°15'0 0.0
2017-Oct-12 10:43N 34°39' E 135°15'0 0.0
2017-Oct-12 10:25N 34°39' E 135°15'1 1.4
2017-Oct-12 09:59N 34°39' E 135°14'610.5
2017-Oct-12 09:25N 34°37' E 135°07'  
2017-Oct-10 04:23N 34°36' E 135°06'4 9.6
2017-Oct-10 03:59N 34°37' E 135°10'5 9.8
2017-Oct-10 03:28N 34°37' E 135°16'5 9.1
2017-Oct-10 02:57N 34°37' E 135°22'3 0.7
2017-Oct-09 22:33N 34°37' E 135°26'1 5.9
2017-Oct-09 22:19N 34°38' E 135°27'1 2.1
2017-Oct-09 22:00N 34°39' E 135°27'0 0.0
2017-Oct-09 14:46N 34°39' E 135°27'0 0.0
2017-Oct-09 11:19N 34°39' E 135°27'0 0.0
2017-Oct-09 10:55N 34°39' E 135°27'0 0.0
2017-Oct-09 10:19N 34°39' E 135°27'0 0.0
2017-Oct-09 09:55N 34°39' E 135°27'4 0.4
2017-Oct-08 23:57N 34°36' E 135°24'  
Track history (hours):
 
Tides and Currents Weather Stations Pressure Air Temp Water Temp Dewpoint Dewpoint Depression Visibility Wind Speed Wind Dir Waves Ship Positions

Tokuyoshi Maru

Last reported at 2017-Oct-17 13:15 UTC. Time now 2017-Oct-19 05:35 UTC.
Position N 34°39' E 135°26'.

Length 48 m.

Type: Tanker. MMSI: 431300099.

Date/timePositionNaut miles runAvg speedWind from/ knotsBaromVisibWave heightAir tempDewpointWater temp
2017-Oct-17 13:15N 34°39' E 135°26'2 4.4
2017-Oct-17 12:47N 34°39' E 135°24'0 0.0
2017-Oct-17 12:29N 34°39' E 135°24'0 0.0
2017-Oct-17 11:41N 34°39' E 135°24'0 0.0
2017-Oct-17 11:29N 34°39' E 135°24'  
2017-Oct-15 04:43N 34°39' E 135°20'410.1
2017-Oct-15 04:22N 34°38' E 135°16'410.1
2017-Oct-15 04:00N 34°37' E 135°11'510.8
2017-Oct-15 03:30N 34°36' E 135°05'1 0.1
2017-Oct-14 11:25N 34°37' E 135°06'4 9.8
2017-Oct-14 10:59N 34°36' E 135°11'10 2.6
2017-Oct-14 07:10N 34°37' E 135°23'210.4
2017-Oct-14 06:58N 34°38' E 135°24'2 3.7
2017-Oct-14 06:30N 34°39' E 135°26'2 0.1
2017-Oct-13 14:45N 34°39' E 135°27'7 0.4
2017-Oct-12 22:50N 34°36' E 135°20'3 8.9
2017-Oct-12 22:30N 34°37' E 135°17'2 3.3
2017-Oct-12 21:48N 34°39' E 135°15'0 0.0
2017-Oct-12 21:24N 34°39' E 135°15'0 0.0
2017-Oct-12 20:07N 34°39' E 135°15'0 0.1
2017-Oct-12 20:00N 34°39' E 135°15'0 0.0
2017-Oct-12 19:30N 34°39' E 135°15'0 0.1
2017-Oct-12 19:00N 34°39' E 135°15'0 0.0
2017-Oct-12 18:30N 34°39' E 135°15'0 0.0
2017-Oct-12 18:00N 34°39' E 135°15'0 0.1
2017-Oct-12 17:30N 34°39' E 135°15'0 0.0
2017-Oct-12 17:00N 34°39' E 135°15'0 0.0
2017-Oct-12 16:13N 34°39' E 135°15'0 0.1
2017-Oct-12 15:43N 34°39' E 135°15'0 0.0
2017-Oct-12 15:25N 34°39' E 135°15'0 0.1
2017-Oct-12 14:43N 34°39' E 135°15'0 0.1
2017-Oct-12 14:13N 34°39' E 135°15'0 0.2
2017-Oct-12 13:55N 34°39' E 135°15'0 0.1
2017-Oct-12 13:31N 34°39' E 135°15'0 0.1
2017-Oct-12 12:49N 34°39' E 135°15'0 0.0
2017-Oct-12 11:55N 34°39' E 135°15'0 0.0
2017-Oct-12 11:31N 34°39' E 135°15'0 0.0
2017-Oct-12 10:43N 34°39' E 135°15'0 0.0
2017-Oct-12 10:25N 34°39' E 135°15'1 1.4
2017-Oct-12 09:59N 34°39' E 135°14'610.5
2017-Oct-12 09:25N 34°37' E 135°07'  
2017-Oct-10 04:23N 34°36' E 135°06'4 9.6
2017-Oct-10 03:59N 34°37' E 135°10'5 9.8
2017-Oct-10 03:28N 34°37' E 135°16'5 9.1
2017-Oct-10 02:57N 34°37' E 135°22'3 0.7
2017-Oct-09 22:33N 34°37' E 135°26'1 5.9
2017-Oct-09 22:19N 34°38' E 135°27'1 2.1
2017-Oct-09 22:00N 34°39' E 135°27'0 0.0
2017-Oct-09 14:46N 34°39' E 135°27'0 0.0
2017-Oct-09 11:19N 34°39' E 135°27'0 0.0
2017-Oct-09 10:55N 34°39' E 135°27'0 0.0
2017-Oct-09 10:19N 34°39' E 135°27'0 0.0
2017-Oct-09 09:55N 34°39' E 135°27'4 0.4
2017-Oct-08 23:57N 34°36' E 135°24'  

Dump ship's entire track history